Kezdőlap
METAR-TAF:

METAR-TAF

Repülőterek :

Grozny, Oroszország

földrajzi szélesség: 43-23-18N, földrajzi hosszúság: 045-41-59E, magasság: 167 m

Jelenlegi meteorológiai megfigyelések

A jelentés 42 perccel ezelõtt készült, 21:00 UTC
Szélcsend
Hőmérséklet 4°C
Páratartalom 87%
Légköri nyomás 1025 hPa
Látótávolság: 5000 m
Borult 1200 lábon
Párásság

METAR: URMG 182100Z 00000MPS 5000 BR OVC012 04/02 Q1025 R26/090070 TEMPO 0300 FG OVC002 RMK OBST OBSC QFE754/1006

Idő: 00:42 (21:42 UTC)

Előrejelzés

A jelentés 1 órával és 42 perccel ezelõtt készült, 20:00 UTC
Az előrejelzés 18-én 21 óra UTC és 19-én 06 óra UTC között érvényes
Délnyugati szél 6 kt széllökések: 16 kt
Látótávolság: 5000 m
Szakadozott felhőzet 1100 lábon
Párásság
18-én 21 óra UTC és 19-én 06 óra UTC között ideiglenes
Különbözõ irányokból fújó szél 2 kt
Látótávolság: 3100 m
Párásság

TAF: URMG 182000Z 1821/1906 22003G08MPS 5000 BR BKN011 TEMPO 1821/1906 VRB01MPS 3100 BR

Meteorológiai megfigyelések és előrejelzések több, mint 4000 repülőtéren (METAR és TAF jelentéseket).

A térképen piros és sárga pontok jelzik az elérhető meteorológiai állomásokat.

Mozgassa az egeret a pont fölött, hogy megjelenjen az állomás neve.

Azután kattintson az időjárási megfigyelések és előrejelzések megtekintéséhez.

A térkép megváltoztatása: kattintson a fekete keresztel jelölt zöld gombra ráközelítéshez, a vonallal jelölt zöld gombra távolításhoz, vagy a zöld nyilakra a szomszédos térképek eléréséhez.


METAR-TAF: